sensor_id;sensor_type;location;lat;lon;timestamp;P1;durP1;ratioP1;P2;durP2;ratioP2
49450;SDS011;35336;48.400;10.886;2022-09-01T00:00:08;10.38;;;9.43;;
49450;SDS011;35336;48.400;10.886;2022-09-01T00:00:27;10.65;;;9.63;;
49450;SDS011;35336;48.400;10.886;2022-09-01T00:00:45;10.45;;;9.35;;
49450;SDS011;35336;48.400;10.886;2022-09-01T00:01:12;10.15;;;9.15;;
49450;SDS011;35336;48.400;10.886;2022-09-01T00:01:38;9.95;;;8.73;;
49450;SDS011;35336;48.400;10.886;2022-09-01T00:01:57;12.35;;;9.45;;
49450;SDS011;35336;48.400;10.886;2022-09-01T00:02:13;11.43;;;9.15;;
49450;SDS011;35336;48.400;10.886;2022-09-01T00:02:29;9.82;;;8.82;;
49450;SDS011;35336;48.400;10.886;2022-09-01T00:02:45;9.70;;;8.70;;
49450;SDS011;35336;48.400;10.886;2022-09-01T00:03:00;9.18;;;8.38;;
49450;SDS011;35336;48.400;10.886;2022-09-01T00:03:18;10.00;;;9.00;;
49450;SDS011;35336;48.400;10.886;2022-09-01T00:03:37;11.70;;;9.15;;
49450;SDS011;35336;48.400;10.886;2022-09-01T00:03:53;11.27;;;8.90;;
49450;SDS011;35336;48.400;10.886;2022-09-01T00:04:11;9.52;;;8.60;;
49450;SDS011;35336;48.400;10.886;2022-09-01T00:04:29;9.95;;;8.65;;
49450;SDS011;35336;48.400;10.886;2022-09-01T00:04:46;9.60;;;8.60;;
49450;SDS011;35336;48.400;10.886;2022-09-01T00:05:01;9.30;;;8.40;;
49450;SDS011;35336;48.400;10.886;2022-09-01T00:05:18;10.18;;;8.85;;
49450;SDS011;35336;48.400;10.886;2022-09-01T00:05:34;10.23;;;8.53;;
49450;SDS011;35336;48.400;10.886;2022-09-01T00:05:50;9.15;;;8.20;;
49450;SDS011;35336;48.400;10.886;2022-09-01T00:06:09;9.38;;;8.38;;
49450;SDS011;35336;48.400;10.886;2022-09-01T00:06:25;9.65;;;8.65;;
49450;SDS011;35336;48.400;10.886;2022-09-01T00:06:41;9.30;;;8.40;;
49450;SDS011;35336;48.400;10.886;2022-09-01T00:06:57;9.70;;;8.65;;
49450;SDS011;35336;48.400;10.886;2022-09-01T00:07:13;10.43;;;9.30;;
49450;SDS011;35336;48.400;10.886;2022-09-01T00:07:29;11.70;;;9.27;;
49450;SDS011;35336;48.400;10.886;2022-09-01T00:07:45;10.95;;;9.30;;
49450;SDS011;35336;48.400;10.886;2022-09-01T00:08:00;10.07;;;9.07;;
49450;SDS011;35336;48.400;10.886;2022-09-01T00:08:16;9.52;;;8.63;;
49450;SDS011;35336;48.400;10.886;2022-09-01T00:08:31;9.87;;;8.87;;
49450;SDS011;35336;48.400;10.886;2022-09-01T00:08:47;10.83;;;9.40;;
49450;SDS011;35336;48.400;10.886;2022-09-01T00:09:08;10.25;;;9.15;;
49450;SDS011;35336;48.400;10.886;2022-09-01T00:09:26;9.70;;;8.70;;
49450;SDS011;35336;48.400;10.886;2022-09-01T00:09:41;9.87;;;8.87;;
49450;SDS011;35336;48.400;10.886;2022-09-01T00:09:57;10.07;;;8.87;;
49450;SDS011;35336;48.400;10.886;2022-09-01T00:10:14;10.48;;;9.18;;
49450;SDS011;35336;48.400;10.886;2022-09-01T00:10:30;10.90;;;9.55;;
49450;SDS011;35336;48.400;10.886;2022-09-01T00:10:45;11.45;;;10.05;;
49450;SDS011;35336;48.400;10.886;2022-09-01T00:11:01;11.18;;;9.95;;
49450;SDS011;35336;48.400;10.886;2022-09-01T00:11:17;12.57;;;9.30;;
49450;SDS011;35336;48.400;10.886;2022-09-01T00:11:33;11.10;;;9.15;;
49450;SDS011;35336;48.400;10.886;2022-09-01T00:11:51;10.40;;;9.35;;
49450;SDS011;35336;48.400;10.886;2022-09-01T00:12:08;10.40;;;9.38;;
49450;SDS011;35336;48.400;10.886;2022-09-01T00:12:24;10.32;;;9.25;;
49450;SDS011;35336;48.400;10.886;2022-09-01T00:12:41;10.93;;;9.65;;
49450;SDS011;35336;48.400;10.886;2022-09-01T00:12:57;10.73;;;9.15;;
49450;SDS011;35336;48.400;10.886;2022-09-01T00:13:13;11.40;;;8.93;;
49450;SDS011;35336;48.400;10.886;2022-09-01T00:13:29;13.60;;;9.48;;
49450;SDS011;35336;48.400;10.886;2022-09-01T00:13:47;10.55;;;9.20;;
49450;SDS011;35336;48.400;10.886;2022-09-01T00:14:05;10.23;;;9.23;;
49450;SDS011;35336;48.400;10.886;2022-09-01T00:14:23;10.88;;;9.73;;
49450;SDS011;35336;48.400;10.886;2022-09-01T00:14:41;10.65;;;9.55;;
49450;SDS011;35336;48.400;10.886;2022-09-01T00:14:57;10.38;;;9.25;;
49450;SDS011;35336;48.400;10.886;2022-09-01T00:15:13;10.50;;;9.20;;
49450;SDS011;35336;48.400;10.886;2022-09-01T00:15:28;10.32;;;9.02;;
49450;SDS011;35336;48.400;10.886;2022-09-01T00:15:44;12.03;;;9.37;;
49450;SDS011;35336;48.400;10.886;2022-09-01T00:16:00;12.48;;;10.05;;
49450;SDS011;35336;48.400;10.886;2022-09-01T00:16:18;10.85;;;9.77;;
49450;SDS011;35336;48.400;10.886;2022-09-01T00:16:34;10.57;;;9.57;;
49450;SDS011;35336;48.400;10.886;2022-09-01T00:16:50;10.63;;;9.57;;
49450;SDS011;35336;48.400;10.886;2022-09-01T00:17:07;10.43;;;9.37;;
49450;SDS011;35336;48.400;10.886;2022-09-01T00:17:24;11.00;;;9.70;;
49450;SDS011;35336;48.400;10.886;2022-09-01T00:17:40;11.10;;;9.65;;
49450;SDS011;35336;48.400;10.886;2022-09-01T00:17:56;10.50;;;9.32;;
49450;SDS011;35336;48.400;10.886;2022-09-01T00:18:11;10.40;;;9.30;;
49450;SDS011;35336;48.400;10.886;2022-09-01T00:18:30;10.73;;;9.63;;
49450;SDS011;35336;48.400;10.886;2022-09-01T00:18:47;10.73;;;9.73;;
49450;SDS011;35336;48.400;10.886;2022-09-01T00:19:05;11.38;;;9.48;;
49450;SDS011;35336;48.400;10.886;2022-09-01T00:19:21;11.23;;;9.23;;
49450;SDS011;35336;48.400;10.886;2022-09-01T00:19:38;9.70;;;8.63;;
49450;SDS011;35336;48.400;10.886;2022-09-01T00:19:54;9.77;;;8.77;;
49450;SDS011;35336;48.400;10.886;2022-09-01T00:20:09;9.90;;;8.90;;
49450;SDS011;35336;48.400;10.886;2022-09-01T00:20:25;10.02;;;9.02;;
49450;SDS011;35336;48.400;10.886;2022-09-01T00:20:40;10.27;;;9.27;;
49450;SDS011;35336;48.400;10.886;2022-09-01T00:20:56;10.43;;;9.43;;
49450;SDS011;35336;48.400;10.886;2022-09-01T00:21:13;10.13;;;9.13;;
49450;SDS011;35336;48.400;10.886;2022-09-01T00:21:31;10.60;;;9.40;;
49450;SDS011;35336;48.400;10.886;2022-09-01T00:21:48;10.50;;;9.10;;
49450;SDS011;35336;48.400;10.886;2022-09-01T00:22:04;9.90;;;8.90;;
49450;SDS011;35336;48.400;10.886;2022-09-01T00:22:19;9.73;;;8.75;;
49450;SDS011;35336;48.400;10.886;2022-09-01T00:22:35;9.63;;;8.70;;
49450;SDS011;35336;48.400;10.886;2022-09-01T00:22:50;9.80;;;8.88;;
49450;SDS011;35336;48.400;10.886;2022-09-01T00:23:06;10.70;;;9.47;;
49450;SDS011;35336;48.400;10.886;2022-09-01T00:23:21;11.50;;;9.73;;
49450;SDS011;35336;48.400;10.886;2022-09-01T00:23:37;11.03;;;9.70;;
49450;SDS011;35336;48.400;10.886;2022-09-01T00:23:52;11.27;;;10.15;;
49450;SDS011;35336;48.400;10.886;2022-09-01T00:24:08;11.07;;;9.98;;
49450;SDS011;35336;48.400;10.886;2022-09-01T00:24:25;11.43;;;9.85;;
49450;SDS011;35336;48.400;10.886;2022-09-01T00:24:41;13.38;;;10.75;;
49450;SDS011;35336;48.400;10.886;2022-09-01T00:24:56;11.77;;;10.57;;
49450;SDS011;35336;48.400;10.886;2022-09-01T00:25:12;10.95;;;9.85;;
49450;SDS011;35336;48.400;10.886;2022-09-01T00:25:27;10.77;;;9.67;;
49450;SDS011;35336;48.400;10.886;2022-09-01T00:25:43;11.55;;;10.05;;
49450;SDS011;35336;48.400;10.886;2022-09-01T00:25:58;12.27;;;10.20;;
49450;SDS011;35336;48.400;10.886;2022-09-01T00:26:14;12.07;;;10.13;;
49450;SDS011;35336;48.400;10.886;2022-09-01T00:26:30;10.90;;;9.63;;
49450;SDS011;35336;48.400;10.886;2022-09-01T00:26:46;11.30;;;9.13;;
49450;SDS011;35336;48.400;10.886;2022-09-01T00:27:02;13.10;;;9.65;;
49450;SDS011;35336;48.400;10.886;2022-09-01T00:27:18;13.05;;;10.20;;
49450;SDS011;35336;48.400;10.886;2022-09-01T00:27:34;12.07;;;10.25;;
49450;SDS011;35336;48.400;10.886;2022-09-01T00:27:50;11.48;;;10.35;;
49450;SDS011;35336;48.400;10.886;2022-09-01T00:28:06;10.70;;;9.60;;
49450;SDS011;35336;48.400;10.886;2022-09-01T00:28:21;10.32;;;9.32;;
49450;SDS011;35336;48.400;10.886;2022-09-01T00:28:37;11.17;;;10.07;;
49450;SDS011;35336;48.400;10.886;2022-09-01T00:28:53;11.88;;;10.00;;
49450;SDS011;35336;48.400;10.886;2022-09-01T00:29:09;12.10;;;9.80;;
49450;SDS011;35336;48.400;10.886;2022-09-01T00:29:25;11.32;;;9.48;;
49450;SDS011;35336;48.400;10.886;2022-09-01T00:29:41;12.93;;;9.60;;
49450;SDS011;35336;48.400;10.886;2022-09-01T00:29:57;12.73;;;10.30;;
49450;SDS011;35336;48.400;10.886;2022-09-01T00:30:14;11.85;;;10.02;;
49450;SDS011;35336;48.400;10.886;2022-09-01T00:30:29;11.00;;;9.32;;
49450;SDS011;35336;48.400;10.886;2022-09-01T00:30:45;10.23;;;9.10;;
49450;SDS011;35336;48.400;10.886;2022-09-01T00:31:01;10.55;;;9.38;;
49450;SDS011;35336;48.400;10.886;2022-09-01T00:31:18;10.48;;;9.40;;
49450;SDS011;35336;48.400;10.886;2022-09-01T00:31:34;10.23;;;9.05;;
49450;SDS011;35336;48.400;10.886;2022-09-01T00:31:51;11.07;;;9.02;;
49450;SDS011;35336;48.400;10.886;2022-09-01T00:32:07;11.27;;;9.57;;
49450;SDS011;35336;48.400;10.886;2022-09-01T00:32:22;11.35;;;9.60;;
49450;SDS011;35336;48.400;10.886;2022-09-01T00:32:38;10.48;;;9.18;;
49450;SDS011;35336;48.400;10.886;2022-09-01T00:32:54;9.93;;;9.00;;
49450;SDS011;35336;48.400;10.886;2022-09-01T00:33:09;10.40;;;9.40;;
49450;SDS011;35336;48.400;10.886;2022-09-01T00:33:25;11.53;;;9.87;;
49450;SDS011;35336;48.400;10.886;2022-09-01T00:33:41;13.70;;;10.02;;
49450;SDS011;35336;48.400;10.886;2022-09-01T00:33:56;12.65;;;10.05;;
49450;SDS011;35336;48.400;10.886;2022-09-01T00:34:13;10.93;;;9.85;;
49450;SDS011;35336;48.400;10.886;2022-09-01T00:34:29;11.48;;;10.18;;
49450;SDS011;35336;48.400;10.886;2022-09-01T00:34:45;11.25;;;9.95;;
49450;SDS011;35336;48.400;10.886;2022-09-01T00:35:00;11.03;;;9.87;;
49450;SDS011;35336;48.400;10.886;2022-09-01T00:35:17;11.90;;;9.68;;
49450;SDS011;35336;48.400;10.886;2022-09-01T00:35:33;12.65;;;10.20;;
49450;SDS011;35336;48.400;10.886;2022-09-01T00:35:49;12.03;;;10.73;;
49450;SDS011;35336;48.400;10.886;2022-09-01T00:36:04;11.45;;;10.20;;
49450;SDS011;35336;48.400;10.886;2022-09-01T00:36:20;11.50;;;10.00;;
49450;SDS011;35336;48.400;10.886;2022-09-01T00:36:36;11.23;;;10.13;;
49450;SDS011;35336;48.400;10.886;2022-09-01T00:36:52;11.38;;;10.20;;
49450;SDS011;35336;48.400;10.886;2022-09-01T00:37:07;10.75;;;9.65;;
49450;SDS011;35336;48.400;10.886;2022-09-01T00:37:23;9.57;;;8.67;;
49450;SDS011;35336;48.400;10.886;2022-09-01T00:37:38;9.75;;;8.82;;
49450;SDS011;35336;48.400;10.886;2022-09-01T00:37:53;10.27;;;9.27;;
49450;SDS011;35336;48.400;10.886;2022-09-01T00:38:09;11.13;;;9.68;;
49450;SDS011;35336;48.400;10.886;2022-09-01T00:38:25;11.33;;;10.13;;
49450;SDS011;35336;48.400;10.886;2022-09-01T00:38:40;11.18;;;10.07;;
49450;SDS011;35336;48.400;10.886;2022-09-01T00:38:56;11.90;;;10.00;;
49450;SDS011;35336;48.400;10.886;2022-09-01T00:39:11;11.73;;;10.00;;
49450;SDS011;35336;48.400;10.886;2022-09-01T00:39:27;11.80;;;10.10;;
49450;SDS011;35336;48.400;10.886;2022-09-01T00:39:42;13.38;;;9.93;;
49450;SDS011;35336;48.400;10.886;2022-09-01T00:39:57;12.13;;;9.47;;
49450;SDS011;35336;48.400;10.886;2022-09-01T00:40:13;12.35;;;9.93;;
49450;SDS011;35336;48.400;10.886;2022-09-01T00:40:30;12.52;;;10.50;;
49450;SDS011;35336;48.400;10.886;2022-09-01T00:40:46;11.90;;;10.70;;
49450;SDS011;35336;48.400;10.886;2022-09-01T00:41:01;12.10;;;10.90;;
49450;SDS011;35336;48.400;10.886;2022-09-01T00:41:18;11.90;;;10.70;;
49450;SDS011;35336;48.400;10.886;2022-09-01T00:41:37;11.82;;;10.63;;
49450;SDS011;35336;48.400;10.886;2022-09-01T00:41:54;12.05;;;10.85;;
49450;SDS011;35336;48.400;10.886;2022-09-01T00:42:09;11.90;;;10.70;;
49450;SDS011;35336;48.400;10.886;2022-09-01T00:42:25;11.98;;;10.75;;
49450;SDS011;35336;48.400;10.886;2022-09-01T00:42:41;12.13;;;10.80;;
49450;SDS011;35336;48.400;10.886;2022-09-01T00:42:58;12.55;;;10.65;;
49450;SDS011;35336;48.400;10.886;2022-09-01T00:43:20;12.15;;;10.82;;
49450;SDS011;35336;48.400;10.886;2022-09-01T00:43:52;13.77;;;10.65;;
49450;SDS011;35336;48.400;10.886;2022-09-01T00:44:11;12.75;;;10.55;;
49450;SDS011;35336;48.400;10.886;2022-09-01T00:44:29;11.00;;;9.82;;
49450;SDS011;35336;48.400;10.886;2022-09-01T00:44:44;10.88;;;9.77;;
49450;SDS011;35336;48.400;10.886;2022-09-01T00:45:00;10.80;;;9.70;;
49450;SDS011;35336;48.400;10.886;2022-09-01T00:45:15;11.60;;;10.03;;
49450;SDS011;35336;48.400;10.886;2022-09-01T00:45:31;11.30;;;10.13;;
49450;SDS011;35336;48.400;10.886;2022-09-01T00:45:47;11.10;;;10.00;;
49450;SDS011;35336;48.400;10.886;2022-09-01T00:46:07;11.45;;;10.27;;
49450;SDS011;35336;48.400;10.886;2022-09-01T00:46:26;11.68;;;10.48;;
49450;SDS011;35336;48.400;10.886;2022-09-01T00:46:45;11.55;;;10.13;;
49450;SDS011;35336;48.400;10.886;2022-09-01T00:47:05;14.18;;;10.30;;
49450;SDS011;35336;48.400;10.886;2022-09-01T00:47:20;14.77;;;10.40;;
49450;SDS011;35336;48.400;10.886;2022-09-01T00:47:36;10.63;;;9.52;;
49450;SDS011;35336;48.400;10.886;2022-09-01T00:47:52;10.50;;;9.40;;
49450;SDS011;35336;48.400;10.886;2022-09-01T00:48:07;10.93;;;9.82;;
49450;SDS011;35336;48.400;10.886;2022-09-01T00:48:23;11.20;;;10.10;;
49450;SDS011;35336;48.400;10.886;2022-09-01T00:48:39;11.98;;;10.00;;
49450;SDS011;35336;48.400;10.886;2022-09-01T00:48:59;12.07;;;9.93;;
49450;SDS011;35336;48.400;10.886;2022-09-01T00:49:31;12.20;;;9.90;;
49450;SDS011;35336;48.400;10.886;2022-09-01T00:49:48;11.80;;;9.73;;
49450;SDS011;35336;48.400;10.886;2022-09-01T00:50:06;13.35;;;10.48;;
49450;SDS011;35336;48.400;10.886;2022-09-01T00:50:22;11.32;;;10.10;;
49450;SDS011;35336;48.400;10.886;2022-09-01T00:50:39;11.48;;;10.38;;
49450;SDS011;35336;48.400;10.886;2022-09-01T00:50:56;11.67;;;10.43;;
49450;SDS011;35336;48.400;10.886;2022-09-01T00:51:12;10.90;;;9.80;;
49450;SDS011;35336;48.400;10.886;2022-09-01T00:51:27;10.85;;;9.85;;
49450;SDS011;35336;48.400;10.886;2022-09-01T00:51:45;11.50;;;10.40;;
49450;SDS011;35336;48.400;10.886;2022-09-01T00:52:50;12.07;;;10.88;;
49450;SDS011;35336;48.400;10.886;2022-09-01T00:52:52;11.40;;;10.20;;
49450;SDS011;35336;48.400;10.886;2022-09-01T00:53:09;12.30;;;10.15;;
49450;SDS011;35336;48.400;10.886;2022-09-01T00:53:24;12.57;;;10.27;;
49450;SDS011;35336;48.400;10.886;2022-09-01T00:53:40;11.77;;;10.45;;
49450;SDS011;35336;48.400;10.886;2022-09-01T00:53:58;11.27;;;10.18;;
49450;SDS011;35336;48.400;10.886;2022-09-01T00:54:17;10.95;;;9.68;;
49450;SDS011;35336;48.400;10.886;2022-09-01T00:54:38;10.40;;;9.30;;
49450;SDS011;35336;48.400;10.886;2022-09-01T00:54:58;12.13;;;10.85;;
49450;SDS011;35336;48.400;10.886;2022-09-01T00:55:28;11.23;;;10.13;;
49450;SDS011;35336;48.400;10.886;2022-09-01T00:55:45;11.45;;;10.25;;
49450;SDS011;35336;48.400;10.886;2022-09-01T00:56:02;12.03;;;10.73;;
49450;SDS011;35336;48.400;10.886;2022-09-01T00:56:19;11.32;;;10.23;;
49450;SDS011;35336;48.400;10.886;2022-09-01T00:56:34;11.25;;;9.90;;
49450;SDS011;35336;48.400;10.886;2022-09-01T00:56:53;10.32;;;9.35;;
49450;SDS011;35336;48.400;10.886;2022-09-01T00:57:10;10.45;;;9.38;;
49450;SDS011;35336;48.400;10.886;2022-09-01T00:57:27;12.13;;;10.10;;
49450;SDS011;35336;48.400;10.886;2022-09-01T00:57:43;12.00;;;10.23;;
49450;SDS011;35336;48.400;10.886;2022-09-01T00:57:59;12.35;;;10.23;;
49450;SDS011;35336;48.400;10.886;2022-09-01T00:58:17;12.07;;;10.10;;
49450;SDS011;35336;48.400;10.886;2022-09-01T00:58:33;11.97;;;10.00;;
49450;SDS011;35336;48.400;10.886;2022-09-01T00:58:51;11.82;;;10.55;;
49450;SDS011;35336;48.400;10.886;2022-09-01T00:59:08;11.90;;;10.70;;
49450;SDS011;35336;48.400;10.886;2022-09-01T00:59:25;11.75;;;10.43;;
49450;SDS011;35336;48.400;10.886;2022-09-01T00:59:44;12.95;;;10.45;;
49450;SDS011;35336;48.400;10.886;2022-09-01T01:00:06;11.45;;;10.07;;
49450;SDS011;35336;48.400;10.886;2022-09-01T01:00:29;11.35;;;10.07;;
49450;SDS011;35336;48.400;10.886;2022-09-01T01:00:46;13.05;;;9.48;;
49450;SDS011;35336;48.400;10.886;2022-09-01T01:01:07;10.63;;;9.30;;
49450;SDS011;35336;48.400;10.886;2022-09-01T01:01:23;11.00;;;9.43;;
49450;SDS011;35336;48.400;10.886;2022-09-01T01:01:38;11.57;;;10.35;;
49450;SDS011;35336;48.400;10.886;2022-09-01T01:01:54;11.77;;;10.60;;
49450;SDS011;35336;48.400;10.886;2022-09-01T01:02:10;11.60;;;10.40;;
49450;SDS011;35336;48.400;10.886;2022-09-01T01:02:25;11.85;;;10.23;;
49450;SDS011;35336;48.400;10.886;2022-09-01T01:02:42;11.30;;;10.10;;
49450;SDS011;35336;48.400;10.886;2022-09-01T01:02:58;10.70;;;9.68;;
49450;SDS011;35336;48.400;10.886;2022-09-01T01:03:14;11.00;;;9.57;;
49450;SDS011;35336;48.400;10.886;2022-09-01T01:03:30;11.43;;;9.77;;
49450;SDS011;35336;48.400;10.886;2022-09-01T01:03:45;11.32;;;10.07;;
49450;SDS011;35336;48.400;10.886;2022-09-01T01:04:05;11.50;;;10.13;;
49450;SDS011;35336;48.400;10.886;2022-09-01T01:04:29;11.60;;;10.00;;
49450;SDS011;35336;48.400;10.886;2022-09-01T01:04:46;13.18;;;10.30;;
49450;SDS011;35336;48.400;10.886;2022-09-01T01:05:01;11.30;;;10.10;;
49450;SDS011;35336;48.400;10.886;2022-09-01T01:05:18;10.93;;;9.85;;
49450;SDS011;35336;48.400;10.886;2022-09-01T01:05:36;10.15;;;9.23;;
49450;SDS011;35336;48.400;10.886;2022-09-01T01:05:57;11.13;;;9.93;;
49450;SDS011;35336;48.400;10.886;2022-09-01T01:06:15;10.88;;;9.73;;
49450;SDS011;35336;48.400;10.886;2022-09-01T01:06:33;11.18;;;9.50;;
49450;SDS011;35336;48.400;10.886;2022-09-01T01:06:50;11.43;;;9.60;;
49450;SDS011;35336;48.400;10.886;2022-09-01T01:07:12;12.27;;;10.00;;
49450;SDS011;35336;48.400;10.886;2022-09-01T01:07:30;11.25;;;10.15;;
49450;SDS011;35336;48.400;10.886;2022-09-01T01:07:49;12.45;;;10.77;;
49450;SDS011;35336;48.400;10.886;2022-09-01T01:08:05;11.80;;;10.35;;
49450;SDS011;35336;48.400;10.886;2022-09-01T01:08:29;12.20;;;10.13;;
49450;SDS011;35336;48.400;10.886;2022-09-01T01:08:48;14.05;;;10.00;;
49450;SDS011;35336;48.400;10.886;2022-09-01T01:09:18;11.32;;;9.57;;
49450;SDS011;35336;48.400;10.886;2022-09-01T01:09:37;12.45;;;9.35;;
49450;SDS011;35336;48.400;10.886;2022-09-01T01:09:56;14.40;;;9.63;;
49450;SDS011;35336;48.400;10.886;2022-09-01T01:10:12;10.20;;;9.13;;
49450;SDS011;35336;48.400;10.886;2022-09-01T01:10:30;10.60;;;9.60;;
49450;SDS011;35336;48.400;10.886;2022-09-01T01:10:49;11.48;;;10.32;;
49450;SDS011;35336;48.400;10.886;2022-09-01T01:11:07;11.47;;;10.27;;
49450;SDS011;35336;48.400;10.886;2022-09-01T01:11:31;13.05;;;10.00;;
49450;SDS011;35336;48.400;10.886;2022-09-01T01:11:47;11.23;;;9.50;;
49450;SDS011;35336;48.400;10.886;2022-09-01T01:12:03;10.70;;;9.60;;
49450;SDS011;35336;48.400;10.886;2022-09-01T01:12:20;9.82;;;8.88;;
49450;SDS011;35336;48.400;10.886;2022-09-01T01:12:38;9.18;;;8.30;;
49450;SDS011;35336;48.400;10.886;2022-09-01T01:12:54;10.18;;;9.15;;
49450;SDS011;35336;48.400;10.886;2022-09-01T01:13:12;10.27;;;9.05;;
49450;SDS011;35336;48.400;10.886;2022-09-01T01:13:29;10.97;;;9.87;;
49450;SDS011;35336;48.400;10.886;2022-09-01T01:14:08;11.75;;;10.30;;
49450;SDS011;35336;48.400;10.886;2022-09-01T01:14:26;11.07;;;10.07;;
49450;SDS011;35336;48.400;10.886;2022-09-01T01:14:47;11.00;;;9.90;;
49450;SDS011;35336;48.400;10.886;2022-09-01T01:15:04;10.98;;;9.80;;
49450;SDS011;35336;48.400;10.886;2022-09-01T01:15:24;12.48;;;9.90;;
49450;SDS011;35336;48.400;10.886;2022-09-01T01:15:40;11.95;;;9.88;;
49450;SDS011;35336;48.400;10.886;2022-09-01T01:15:59;10.48;;;9.38;;
49450;SDS011;35336;48.400;10.886;2022-09-01T01:16:14;10.77;;;9.23;;
49450;SDS011;35336;48.400;10.886;2022-09-01T01:16:30;10.55;;;9.30;;
49450;SDS011;35336;48.400;10.886;2022-09-01T01:16:46;11.05;;;9.32;;
49450;SDS011;35336;48.400;10.886;2022-09-01T01:17:04;11.07;;;9.60;;
49450;SDS011;35336;48.400;10.886;2022-09-01T01:17:20;12.83;;;9.67;;
49450;SDS011;35336;48.400;10.886;2022-09-01T01:17:37;12.38;;;9.38;;
49450;SDS011;35336;48.400;10.886;2022-09-01T01:17:53;11.02;;;9.50;;
49450;SDS011;35336;48.400;10.886;2022-09-01T01:18:10;11.70;;;10.13;;
49450;SDS011;35336;48.400;10.886;2022-09-01T01:18:29;12.15;;;10.88;;
49450;SDS011;35336;48.400;10.886;2022-09-01T01:18:45;11.93;;;10.73;;
49450;SDS011;35336;48.400;10.886;2022-09-01T01:19:00;12.40;;;10.82;;
49450;SDS011;35336;48.400;10.886;2022-09-01T01:19:28;12.88;;;11.20;;
49450;SDS011;35336;48.400;10.886;2022-09-01T01:20:16;10.98;;;9.90;;
49450;SDS011;35336;48.400;10.886;2022-09-01T01:21:04;11.13;;;10.02;;
49450;SDS011;35336;48.400;10.886;2022-09-01T01:21:42;11.32;;;10.27;;
49450;SDS011;35336;48.400;10.886;2022-09-01T01:22:19;12.52;;;9.90;;
49450;SDS011;35336;48.400;10.886;2022-09-01T01:22:59;10.45;;;9.45;;
49450;SDS011;35336;48.400;10.886;2022-09-01T01:23:28;11.15;;;10.05;;
49450;SDS011;35336;48.400;10.886;2022-09-01T01:23:56;11.52;;;9.95;;
49450;SDS011;35336;48.400;10.886;2022-09-01T01:24:19;11.63;;;10.40;;
49450;SDS011;35336;48.400;10.886;2022-09-01T01:24:39;13.30;;;9.90;;
49450;SDS011;35336;48.400;10.886;2022-09-01T01:24:54;12.77;;;9.90;;
49450;SDS011;35336;48.400;10.886;2022-09-01T01:25:10;11.50;;;9.85;;
49450;SDS011;35336;48.400;10.886;2022-09-01T01:25:40;11.73;;;10.18;;
49450;SDS011;35336;48.400;10.886;2022-09-01T01:26:03;12.45;;;11.15;;
49450;SDS011;35336;48.400;10.886;2022-09-01T01:26:21;12.48;;;11.18;;
49450;SDS011;35336;48.400;10.886;2022-09-01T01:26:37;12.35;;;11.05;;
49450;SDS011;35336;48.400;10.886;2022-09-01T01:26:53;12.23;;;10.93;;
49450;SDS011;35336;48.400;10.886;2022-09-01T01:27:14;11.40;;;10.07;;
49450;SDS011;35336;48.400;10.886;2022-09-01T01:27:34;11.00;;;9.90;;
49450;SDS011;35336;48.400;10.886;2022-09-01T01:27:50;11.43;;;10.27;;
49450;SDS011;35336;48.400;10.886;2022-09-01T01:28:10;12.07;;;10.77;;
49450;SDS011;35336;48.400;10.886;2022-09-01T01:28:31;11.32;;;10.23;;
49450;SDS011;35336;48.400;10.886;2022-09-01T01:28:52;12.13;;;10.93;;
49450;SDS011;35336;48.400;10.886;2022-09-01T01:29:09;12.82;;;11.50;;
49450;SDS011;35336;48.400;10.886;2022-09-01T01:29:25;12.15;;;10.93;;
49450;SDS011;35336;48.400;10.886;2022-09-01T01:29:48;13.10;;;11.65;;
49450;SDS011;35336;48.400;10.886;2022-09-01T01:30:07;14.50;;;11.35;;
49450;SDS011;35336;48.400;10.886;2022-09-01T01:30:26;13.55;;;11.50;;
49450;SDS011;35336;48.400;10.886;2022-09-01T01:30:46;15.70;;;11.52;;
49450;SDS011;35336;48.400;10.886;2022-09-01T01:31:12;14.45;;;11.02;;
49450;SDS011;35336;48.400;10.886;2022-09-01T01:31:32;12.02;;;10.73;;
49450;SDS011;35336;48.400;10.886;2022-09-01T01:31:49;12.52;;;11.10;;
49450;SDS011;35336;48.400;10.886;2022-09-01T01:32:07;12.32;;;10.65;;
49450;SDS011;35336;48.400;10.886;2022-09-01T01:32:26;12.07;;;10.85;;
49450;SDS011;35336;48.400;10.886;2022-09-01T01:32:43;12.48;;;11.13;;
49450;SDS011;35336;48.400;10.886;2022-09-01T01:32:59;11.15;;;10.02;;
49450;SDS011;35336;48.400;10.886;2022-09-01T01:33:15;11.07;;;9.88;;
49450;SDS011;35336;48.400;10.886;2022-09-01T01:33:33;12.00;;;10.77;;
49450;SDS011;35336;48.400;10.886;2022-09-01T01:33:55;12.15;;;10.95;;
49450;SDS011;35336;48.400;10.886;2022-09-01T01:34:11;12.13;;;10.48;;
49450;SDS011;35336;48.400;10.886;2022-09-01T01:34:28;12.43;;;11.13;;
49450;SDS011;35336;48.400;10.886;2022-09-01T01:34:44;12.53;;;11.30;;
49450;SDS011;35336;48.400;10.886;2022-09-01T01:35:01;12.23;;;11.02;;
49450;SDS011;35336;48.400;10.886;2022-09-01T01:35:19;13.27;;;11.25;;
49450;SDS011;35336;48.400;10.886;2022-09-01T01:35:35;12.85;;;10.98;;
49450;SDS011;35336;48.400;10.886;2022-09-01T01:35:51;12.33;;;10.83;;
49450;SDS011;35336;48.400;10.886;2022-09-01T01:36:12;14.57;;;10.82;;
49450;SDS011;35336;48.400;10.886;2022-09-01T01:36:32;13.52;;;11.07;;
49450;SDS011;35336;48.400;10.886;2022-09-01T01:36:50;13.15;;;11.25;;
49450;SDS011;35336;48.400;10.886;2022-09-01T01:37:06;13.15;;;11.85;;
49450;SDS011;35336;48.400;10.886;2022-09-01T01:37:21;12.45;;;11.25;;
49450;SDS011;35336;48.400;10.886;2022-09-01T01:37:43;11.02;;;10.00;;
49450;SDS011;35336;48.400;10.886;2022-09-01T01:38:00;11.18;;;10.13;;
49450;SDS011;35336;48.400;10.886;2022-09-01T01:38:17;11.77;;;10.73;;
49450;SDS011;35336;48.400;10.886;2022-09-01T01:38:36;12.20;;;10.90;;
49450;SDS011;35336;48.400;10.886;2022-09-01T01:38:55;11.95;;;10.60;;
49450;SDS011;35336;48.400;10.886;2022-09-01T01:39:19;12.32;;;11.02;;
49450;SDS011;35336;48.400;10.886;2022-09-01T01:39:39;12.30;;;11.02;;
49450;SDS011;35336;48.400;10.886;2022-09-01T01:39:56;12.32;;;11.02;;
49450;SDS011;35336;48.400;10.886;2022-09-01T01:40:13;13.90;;;10.97;;
49450;SDS011;35336;48.400;10.886;2022-09-01T01:40:30;14.63;;;11.27;;
49450;SDS011;35336;48.400;10.886;2022-09-01T01:40:45;13.07;;;11.45;;
49450;SDS011;35336;48.400;10.886;2022-09-01T01:41:01;11.80;;;10.60;;
49450;SDS011;35336;48.400;10.886;2022-09-01T01:41:17;11.00;;;9.90;;
49450;SDS011;35336;48.400;10.886;2022-09-01T01:41:34;11.07;;;9.75;;
49450;SDS011;35336;48.400;10.886;2022-09-01T01:41:56;12.25;;;10.80;;
49450;SDS011;35336;48.400;10.886;2022-09-01T01:42:12;12.55;;;10.25;;
49450;SDS011;35336;48.400;10.886;2022-09-01T01:42:28;12.67;;;10.70;;
49450;SDS011;35336;48.400;10.886;2022-09-01T01:42:44;13.45;;;11.60;;
49450;SDS011;35336;48.400;10.886;2022-09-01T01:43:04;15.48;;;12.00;;
49450;SDS011;35336;48.400;10.886;2022-09-01T01:43:20;12.63;;;11.23;;
49450;SDS011;35336;48.400;10.886;2022-09-01T01:43:37;13.55;;;11.27;;
49450;SDS011;35336;48.400;10.886;2022-09-01T01:43:52;17.02;;;11.48;;
49450;SDS011;35336;48.400;10.886;2022-09-01T01:44:08;13.57;;;10.57;;